Archangel One — 9HPA9 — position and weather

sailwx.info

Track history (hours):
 
Tides and Currents Weather Stations Pressure Air Temp Water Temp Dewpoint Dewpoint Depression Visibility Wind Speed Wind Dir Waves Ship Positions

Archangel One

Last reported at 2018-Jun-18 18:37 UTC. Time now 2018-Jun-19 04:19 UTC.
Position N 42°27' E 027°32'.

Length 109 m; draft 4.2 m.

Type: Ship (hazmat cat B). MMSI: 249301000.

Date/timePositionNaut miles runAvg speedWind from/ knotsBaromVisibWave heightAir tempDewpointWater temp
2018-Jun-18 18:37N 42°27' E 027°32'0 0.0
2018-Jun-18 18:28N 42°27' E 027°32'197 3.9
2018-Jun-16 15:23N 39°46' E 025°01'612.2
2018-Jun-16 14:53N 39°47' E 024°54'2712.4
2018-Jun-16 12:40N 39°49' E 024°18'212.7
2018-Jun-16 12:30N 39°50' E 024°15'712.6
2018-Jun-16 11:56N 39°51' E 024°06'612.7
2018-Jun-16 11:29N 39°51' E 023°59'36 1.0
2018-Jun-14 23:23N 39°26' E 023°24'6211.3
2018-Jun-14 17:55N 38°41' E 024°17'511.2
2018-Jun-14 17:30N 38°37' E 024°20'5210.4
2018-Jun-14 12:28N 37°44' E 024°18'1712.7
2018-Jun-14 11:08N 37°36' E 023°59'513.1
2018-Jun-14 10:46N 37°37' E 023°54'413.2
2018-Jun-14 10:30N 37°38' E 023°49'612.8
2018-Jun-14 10:00N 37°40' E 023°42'713.3
2018-Jun-14 09:30N 37°47' E 023°39'612.6
2018-Jun-14 09:00N 37°53' E 023°37'4 8.8
2018-Jun-14 08:30N 37°57' E 023°35'3 6.5
2018-Jun-14 08:00N 37°60' E 023°33'3 5.1
2018-Jun-14 07:29N 38°01' E 023°36'0 0.0
2018-Jun-14 06:59N 38°01' E 023°36'0 0.0
2018-Jun-14 06:29N 38°01' E 023°36'0 0.0
2018-Jun-14 05:59N 38°01' E 023°36'0 0.0
2018-Jun-14 05:29N 38°01' E 023°36'0 0.0
2018-Jun-14 04:59N 38°01' E 023°36'0 0.0
2018-Jun-14 04:29N 38°01' E 023°36'0 0.0
2018-Jun-14 04:00N 38°01' E 023°36'0 0.0
2018-Jun-14 03:29N 38°01' E 023°36'0 0.0
2018-Jun-14 02:59N 38°01' E 023°36'0 0.0
2018-Jun-14 02:29N 38°01' E 023°36'0 0.0
2018-Jun-14 01:59N 38°01' E 023°36'0 0.0
2018-Jun-14 01:29N 38°01' E 023°36'0 0.0
2018-Jun-14 00:59N 38°01' E 023°36'0 0.0
2018-Jun-14 00:29N 38°01' E 023°36'0 0.0
2018-Jun-13 23:59N 38°01' E 023°36'0 0.0
2018-Jun-13 23:29N 38°01' E 023°36'0 0.0
2018-Jun-13 22:59N 38°01' E 023°36'0 0.0
2018-Jun-13 22:29N 38°01' E 023°36'0 0.0
2018-Jun-13 21:59N 38°01' E 023°36'0 0.0
2018-Jun-13 21:29N 38°01' E 023°36'0 0.0
2018-Jun-13 20:59N 38°01' E 023°36'0 0.0
2018-Jun-13 20:29N 38°01' E 023°36'0 0.0
2018-Jun-13 19:59N 38°01' E 023°36'0 0.0
2018-Jun-13 19:29N 38°01' E 023°36'0 0.0
2018-Jun-13 18:59N 38°01' E 023°36'0 0.0
2018-Jun-13 18:29N 38°01' E 023°36'0 0.0
2018-Jun-13 17:59N 38°01' E 023°36'0 0.0
2018-Jun-13 17:29N 38°01' E 023°36'0 0.0
2018-Jun-13 16:59N 38°01' E 023°36'0 0.0
2018-Jun-13 16:29N 38°01' E 023°36'0 0.0
2018-Jun-13 15:59N 38°01' E 023°36'0 0.0
2018-Jun-13 15:29N 38°01' E 023°36'0 0.0
2018-Jun-13 14:59N 38°01' E 023°36'0 0.0
2018-Jun-13 14:29N 38°01' E 023°36'0 0.0
2018-Jun-13 13:59N 38°01' E 023°36'0 0.0
2018-Jun-13 13:29N 38°01' E 023°36'0 0.0
2018-Jun-13 12:59N 38°01' E 023°36'0 0.0
2018-Jun-13 12:29N 38°01' E 023°36'0 0.0
2018-Jun-13 11:59N 38°01' E 023°36'0 0.0
2018-Jun-13 11:29N 38°01' E 023°36'0 0.0
2018-Jun-13 10:59N 38°01' E 023°36'0 0.0
2018-Jun-13 10:29N 38°01' E 023°36'0 0.0
2018-Jun-13 09:59N 38°01' E 023°36'0 0.0
2018-Jun-13 09:29N 38°01' E 023°36'0 0.0
2018-Jun-13 08:59N 38°01' E 023°36'0 0.0
2018-Jun-13 08:30N 38°01' E 023°36'1 2.2
2018-Jun-13 08:01N 38°01' E 023°34'1 2.5
2018-Jun-13 07:30N 38°02' E 023°33'0 0.3
2018-Jun-13 06:58N 38°01' E 023°33'0 0.0
2018-Jun-13 06:28N 38°01' E 023°33'0 0.0
2018-Jun-13 05:58N 38°01' E 023°33'0 0.1
2018-Jun-13 05:28N 38°01' E 023°33'0 0.1
2018-Jun-13 04:58N 38°01' E 023°33'0 0.0
2018-Jun-13 04:28N 38°01' E 023°33'0 0.0
2018-Jun-13 03:58N 38°01' E 023°33'0 0.0
2018-Jun-13 03:28N 38°01' E 023°33'0 0.0
2018-Jun-13 02:58N 38°01' E 023°33'0 0.0
2018-Jun-13 02:28N 38°01' E 023°33'0 0.1
2018-Jun-13 01:58N 38°01' E 023°33'0 0.0
2018-Jun-13 01:28N 38°01' E 023°33'0 0.0
2018-Jun-13 00:58N 38°01' E 023°33'0 0.0
2018-Jun-13 00:28N 38°01' E 023°33'0 0.0
2018-Jun-12 23:58N 38°01' E 023°33'0 0.0
2018-Jun-12 23:28N 38°01' E 023°33'0 0.0
2018-Jun-12 22:58N 38°01' E 023°33'0 0.0
2018-Jun-12 22:28N 38°01' E 023°33'0 0.0
2018-Jun-12 21:58N 38°01' E 023°33'0 0.1
2018-Jun-12 21:28N 38°01' E 023°33'0 0.0
2018-Jun-12 20:58N 38°01' E 023°33'0 0.0
2018-Jun-12 20:28N 38°01' E 023°33'0 0.0
2018-Jun-12 19:58N 38°01' E 023°33'0 0.0
2018-Jun-12 19:28N 38°01' E 023°33'0 0.0
2018-Jun-12 18:58N 38°01' E 023°33'0 0.0
2018-Jun-12 18:28N 38°01' E 023°33'0 0.0
2018-Jun-12 17:58N 38°01' E 023°33'0 0.0
2018-Jun-12 17:28N 38°01' E 023°33'0 0.0
2018-Jun-12 16:58N 38°01' E 023°33'0 0.0
2018-Jun-12 16:28N 38°01' E 023°33'0 0.0
2018-Jun-12 15:58N 38°01' E 023°33'0 0.0
2018-Jun-12 15:28N 38°01' E 023°33'0 0.0
2018-Jun-12 14:58N 38°01' E 023°33'0 0.0
2018-Jun-12 14:28N 38°01' E 023°33'0 0.0
2018-Jun-12 13:58N 38°01' E 023°33'0 0.0
2018-Jun-12 13:28N 38°01' E 023°33'0 0.0
2018-Jun-12 12:58N 38°01' E 023°33'0 0.1
2018-Jun-12 12:28N 38°01' E 023°33'0 0.2
2018-Jun-12 11:58N 38°01' E 023°33'0 0.1
2018-Jun-12 11:28N 38°01' E 023°33'0 0.0
2018-Jun-12 10:58N 38°01' E 023°33'0 0.0
2018-Jun-12 10:28N 38°01' E 023°33'0 0.0
2018-Jun-12 09:58N 38°01' E 023°33'0 0.0
2018-Jun-12 09:28N 38°01' E 023°33'0 0.0
2018-Jun-12 08:58N 38°01' E 023°33'0 0.0
2018-Jun-12 08:28N 38°01' E 023°33'0 0.0
2018-Jun-12 07:58N 38°01' E 023°33'0 0.0
2018-Jun-12 07:28N 38°01' E 023°33'0 0.0
2018-Jun-12 06:58N 38°01' E 023°33'0 0.0
2018-Jun-12 06:28N 38°01' E 023°33'0 0.0
2018-Jun-12 05:58N 38°01' E 023°33'0 0.0
2018-Jun-12 05:28N 38°01' E 023°33'0 0.0
2018-Jun-12 04:58N 38°01' E 023°33'0 0.0
2018-Jun-12 04:28N 38°01' E 023°33'0 0.0
2018-Jun-12 03:58N 38°01' E 023°33'0 0.0
2018-Jun-12 03:28N 38°01' E 023°33'0 0.0
2018-Jun-12 02:58N 38°01' E 023°33'0 0.0
2018-Jun-12 02:28N 38°01' E 023°33'0 0.0
2018-Jun-12 01:58N 38°01' E 023°33'0 0.0
2018-Jun-12 01:28N 38°01' E 023°33'0 0.0
2018-Jun-12 00:58N 38°01' E 023°33'0 0.0
2018-Jun-12 00:28N 38°01' E 023°33'0 0.0
2018-Jun-11 23:58N 38°01' E 023°33'0 0.0
2018-Jun-11 23:28N 38°01' E 023°33'0 0.0
2018-Jun-11 22:58N 38°01' E 023°33'0 0.0
2018-Jun-11 22:28N 38°01' E 023°33'0 0.0
2018-Jun-11 21:58N 38°01' E 023°33'0 0.0
2018-Jun-11 21:28N 38°01' E 023°33'0 0.0
2018-Jun-11 20:58N 38°01' E 023°33'0 0.0
2018-Jun-11 20:28N 38°01' E 023°33'0 0.0
2018-Jun-11 19:58N 38°01' E 023°33'0 0.0
2018-Jun-11 19:28N 38°01' E 023°33'0 0.0
2018-Jun-11 18:58N 38°01' E 023°33'0 0.0
2018-Jun-11 18:28N 38°01' E 023°33'0 0.0
2018-Jun-11 17:58N 38°01' E 023°33'0 0.0
2018-Jun-11 17:28N 38°01' E 023°33'0 0.0
2018-Jun-11 16:58N 38°01' E 023°33'1 1.4
2018-Jun-11 16:30N 38°01' E 023°33'4 7.2
2018-Jun-11 15:58N 37°57' E 023°35'0 0.0
2018-Jun-11 15:28N 37°57' E 023°35'0 0.0
2018-Jun-11 14:58N 37°57' E 023°35'0 0.0
2018-Jun-11 14:28N 37°57' E 023°35'0 0.0
2018-Jun-11 13:58N 37°57' E 023°35'0 0.0
2018-Jun-11 13:28N 37°57' E 023°35'0 0.0
2018-Jun-11 12:58N 37°57' E 023°35'0 0.0
2018-Jun-11 12:28N 37°57' E 023°35'0 0.0
2018-Jun-11 11:58N 37°57' E 023°35'0 0.0
2018-Jun-11 11:28N 37°57' E 023°35'0 0.0
2018-Jun-11 10:58N 37°57' E 023°35'0 0.0
2018-Jun-11 10:28N 37°57' E 023°35'0 0.0
2018-Jun-11 09:58N 37°57' E 023°35'0 0.0
2018-Jun-11 09:28N 37°57' E 023°35'0 0.0
2018-Jun-11 08:58N 37°57' E 023°35'0 0.0
2018-Jun-11 08:28N 37°57' E 023°35'0 0.0
2018-Jun-11 07:58N 37°57' E 023°35'0 0.0
2018-Jun-11 07:28N 37°57' E 023°35'0 0.0
2018-Jun-11 06:58N 37°57' E 023°35'0 0.0
2018-Jun-11 06:28N 37°57' E 023°35'0 0.0
2018-Jun-11 05:58N 37°57' E 023°35'0 0.0
2018-Jun-11 05:28N 37°57' E 023°35'0 0.0
2018-Jun-11 04:58N 37°57' E 023°35'0 0.0
2018-Jun-11 04:28N 37°57' E 023°35'0 0.0
2018-Jun-11 03:58N 37°57' E 023°35'0 0.0
2018-Jun-11 03:28N 37°57' E 023°35'0 0.0
2018-Jun-11 02:58N 37°57' E 023°35'0 0.0
2018-Jun-11 02:28N 37°57' E 023°35'0 0.0
2018-Jun-11 01:58N 37°57' E 023°35'0 0.0
2018-Jun-11 01:28N 37°57' E 023°35'0 0.0
2018-Jun-11 00:58N 37°57' E 023°35'0 0.0
2018-Jun-11 00:28N 37°57' E 023°35'0 0.0
2018-Jun-10 23:58N 37°57' E 023°35'0 0.0
2018-Jun-10 23:28N 37°57' E 023°35'0 0.0
2018-Jun-10 22:58N 37°57' E 023°35'0 0.0
2018-Jun-10 22:28N 37°57' E 023°35'0 0.0
2018-Jun-10 21:58N 37°57' E 023°35'0 0.0
2018-Jun-10 21:28N 37°57' E 023°35'0 0.0
2018-Jun-10 20:58N 37°57' E 023°35'0 0.0
2018-Jun-10 20:28N 37°57' E 023°35'0 0.0
2018-Jun-10 19:58N 37°57' E 023°35'0 0.0
2018-Jun-10 19:28N 37°57' E 023°35'0 0.0
2018-Jun-10 18:58N 37°57' E 023°35'0 0.0
2018-Jun-10 18:28N 37°57' E 023°35'0 0.0
2018-Jun-10 17:58N 37°57' E 023°35'0 0.0
2018-Jun-10 17:28N 37°57' E 023°35'0 0.0
2018-Jun-10 16:58N 37°57' E 023°35'0 0.0
2018-Jun-10 16:28N 37°57' E 023°35'0 0.0
2018-Jun-10 15:58N 37°57' E 023°35'0 0.0
2018-Jun-10 15:28N 37°57' E 023°35'0 0.0
2018-Jun-10 14:58N 37°57' E 023°35'0 0.0
2018-Jun-10 13:58N 37°57' E 023°35'0 0.0
2018-Jun-10 13:28N 37°57' E 023°35'0 0.0
2018-Jun-10 12:58N 37°57' E 023°35'0 0.0
2018-Jun-10 12:28N 37°57' E 023°35'0 0.0
2018-Jun-10 11:58N 37°57' E 023°35'0 0.0
2018-Jun-10 11:28N 37°57' E 023°35'0 0.1
2018-Jun-10 10:58N 37°57' E 023°35'0 0.1
2018-Jun-10 10:28N 37°57' E 023°35'0 0.0
2018-Jun-10 09:58N 37°57' E 023°35'0 0.0
2018-Jun-10 09:28N 37°57' E 023°35'0 0.0
2018-Jun-10 08:58N 37°57' E 023°35'0 0.0
2018-Jun-10 08:28N 37°57' E 023°35'0 0.0
2018-Jun-10 07:58N 37°57' E 023°35'0 0.0
2018-Jun-10 07:28N 37°57' E 023°35'0 0.0
2018-Jun-10 06:58N 37°57' E 023°35'0 0.2
2018-Jun-10 06:30N 37°57' E 023°35'2 3.9
2018-Jun-10 06:00N 37°55' E 023°36'1 1.0
2018-Jun-10 05:30N 37°55' E 023°36'0 0.3
2018-Jun-10 05:00N 37°55' E 023°36'0 0.4
2018-Jun-10 04:30N 37°54' E 023°36'0 0.7
2018-Jun-10 04:00N 37°54' E 023°36'3 5.3
2018-Jun-10 03:30N 37°52' E 023°38'4 8.7
2018-Jun-10 03:00N 37°48' E 023°41'510.1
2018-Jun-10 02:30N 37°44' E 023°44'510.4
2018-Jun-10 02:00N 37°39' E 023°47'510.7
2018-Jun-10 01:30N 37°37' E 023°53'510.0
2018-Jun-10 01:00N 37°36' E 023°59'510.1
2018-Jun-10 00:30N 37°37' E 024°06'21410.8
2018-Jun-09 04:40N 40°28' E 026°51'212.1
2018-Jun-09 04:30N 40°29' E 026°53'5012.0
2018-Jun-09 00:20N 40°48' E 027°54'612.1
2018-Jun-08 23:49N 40°49' E 028°02'412.4
2018-Jun-08 23:30N 40°49' E 028°07'612.3
2018-Jun-08 23:00N 40°50' E 028°15'1212.0
2018-Jun-08 21:58N 40°52' E 028°31'1711.8
2018-Jun-08 20:32N 40°56' E 028°53'111.8
2018-Jun-08 20:28N 40°56' E 028°54'2010.7
2018-Jun-08 18:38N 41°13' E 029°07'  
Track history (hours):
 
Tides and Currents Weather Stations Pressure Air Temp Water Temp Dewpoint Dewpoint Depression Visibility Wind Speed Wind Dir Waves Ship Positions

Archangel One

Last reported at 2018-Jun-18 18:37 UTC. Time now 2018-Jun-19 04:19 UTC.
Position N 42°27' E 027°32'.

Length 109 m; draft 4.2 m.

Type: Ship (hazmat cat B). MMSI: 249301000.

Date/timePositionNaut miles runAvg speedWind from/ knotsBaromVisibWave heightAir tempDewpointWater temp
2018-Jun-18 18:37N 42°27' E 027°32'0 0.0
2018-Jun-18 18:28N 42°27' E 027°32'197 3.9
2018-Jun-16 15:23N 39°46' E 025°01'612.2
2018-Jun-16 14:53N 39°47' E 024°54'2712.4
2018-Jun-16 12:40N 39°49' E 024°18'212.7
2018-Jun-16 12:30N 39°50' E 024°15'712.6
2018-Jun-16 11:56N 39°51' E 024°06'612.7
2018-Jun-16 11:29N 39°51' E 023°59'36 1.0
2018-Jun-14 23:23N 39°26' E 023°24'6211.3
2018-Jun-14 17:55N 38°41' E 024°17'511.2
2018-Jun-14 17:30N 38°37' E 024°20'5210.4
2018-Jun-14 12:28N 37°44' E 024°18'1712.7
2018-Jun-14 11:08N 37°36' E 023°59'513.1
2018-Jun-14 10:46N 37°37' E 023°54'413.2
2018-Jun-14 10:30N 37°38' E 023°49'612.8
2018-Jun-14 10:00N 37°40' E 023°42'713.3
2018-Jun-14 09:30N 37°47' E 023°39'612.6
2018-Jun-14 09:00N 37°53' E 023°37'4 8.8
2018-Jun-14 08:30N 37°57' E 023°35'3 6.5
2018-Jun-14 08:00N 37°60' E 023°33'3 5.1
2018-Jun-14 07:29N 38°01' E 023°36'0 0.0
2018-Jun-14 06:59N 38°01' E 023°36'0 0.0
2018-Jun-14 06:29N 38°01' E 023°36'0 0.0
2018-Jun-14 05:59N 38°01' E 023°36'0 0.0
2018-Jun-14 05:29N 38°01' E 023°36'0 0.0
2018-Jun-14 04:59N 38°01' E 023°36'0 0.0
2018-Jun-14 04:29N 38°01' E 023°36'0 0.0
2018-Jun-14 04:00N 38°01' E 023°36'0 0.0
2018-Jun-14 03:29N 38°01' E 023°36'0 0.0
2018-Jun-14 02:59N 38°01' E 023°36'0 0.0
2018-Jun-14 02:29N 38°01' E 023°36'0 0.0
2018-Jun-14 01:59N 38°01' E 023°36'0 0.0
2018-Jun-14 01:29N 38°01' E 023°36'0 0.0
2018-Jun-14 00:59N 38°01' E 023°36'0 0.0
2018-Jun-14 00:29N 38°01' E 023°36'0 0.0
2018-Jun-13 23:59N 38°01' E 023°36'0 0.0
2018-Jun-13 23:29N 38°01' E 023°36'0 0.0
2018-Jun-13 22:59N 38°01' E 023°36'0 0.0
2018-Jun-13 22:29N 38°01' E 023°36'0 0.0
2018-Jun-13 21:59N 38°01' E 023°36'0 0.0
2018-Jun-13 21:29N 38°01' E 023°36'0 0.0
2018-Jun-13 20:59N 38°01' E 023°36'0 0.0
2018-Jun-13 20:29N 38°01' E 023°36'0 0.0
2018-Jun-13 19:59N 38°01' E 023°36'0 0.0
2018-Jun-13 19:29N 38°01' E 023°36'0 0.0
2018-Jun-13 18:59N 38°01' E 023°36'0 0.0
2018-Jun-13 18:29N 38°01' E 023°36'0 0.0
2018-Jun-13 17:59N 38°01' E 023°36'0 0.0
2018-Jun-13 17:29N 38°01' E 023°36'0 0.0
2018-Jun-13 16:59N 38°01' E 023°36'0 0.0
2018-Jun-13 16:29N 38°01' E 023°36'0 0.0
2018-Jun-13 15:59N 38°01' E 023°36'0 0.0
2018-Jun-13 15:29N 38°01' E 023°36'0 0.0
2018-Jun-13 14:59N 38°01' E 023°36'0 0.0
2018-Jun-13 14:29N 38°01' E 023°36'0 0.0
2018-Jun-13 13:59N 38°01' E 023°36'0 0.0
2018-Jun-13 13:29N 38°01' E 023°36'0 0.0
2018-Jun-13 12:59N 38°01' E 023°36'0 0.0
2018-Jun-13 12:29N 38°01' E 023°36'0 0.0
2018-Jun-13 11:59N 38°01' E 023°36'0 0.0
2018-Jun-13 11:29N 38°01' E 023°36'0 0.0
2018-Jun-13 10:59N 38°01' E 023°36'0 0.0
2018-Jun-13 10:29N 38°01' E 023°36'0 0.0
2018-Jun-13 09:59N 38°01' E 023°36'0 0.0
2018-Jun-13 09:29N 38°01' E 023°36'0 0.0
2018-Jun-13 08:59N 38°01' E 023°36'0 0.0
2018-Jun-13 08:30N 38°01' E 023°36'1 2.2
2018-Jun-13 08:01N 38°01' E 023°34'1 2.5
2018-Jun-13 07:30N 38°02' E 023°33'0 0.3
2018-Jun-13 06:58N 38°01' E 023°33'0 0.0
2018-Jun-13 06:28N 38°01' E 023°33'0 0.0
2018-Jun-13 05:58N 38°01' E 023°33'0 0.1
2018-Jun-13 05:28N 38°01' E 023°33'0 0.1
2018-Jun-13 04:58N 38°01' E 023°33'0 0.0
2018-Jun-13 04:28N 38°01' E 023°33'0 0.0
2018-Jun-13 03:58N 38°01' E 023°33'0 0.0
2018-Jun-13 03:28N 38°01' E 023°33'0 0.0
2018-Jun-13 02:58N 38°01' E 023°33'0 0.0
2018-Jun-13 02:28N 38°01' E 023°33'0 0.1
2018-Jun-13 01:58N 38°01' E 023°33'0 0.0
2018-Jun-13 01:28N 38°01' E 023°33'0 0.0
2018-Jun-13 00:58N 38°01' E 023°33'0 0.0
2018-Jun-13 00:28N 38°01' E 023°33'0 0.0
2018-Jun-12 23:58N 38°01' E 023°33'0 0.0
2018-Jun-12 23:28N 38°01' E 023°33'0 0.0
2018-Jun-12 22:58N 38°01' E 023°33'0 0.0
2018-Jun-12 22:28N 38°01' E 023°33'0 0.0
2018-Jun-12 21:58N 38°01' E 023°33'0 0.1
2018-Jun-12 21:28N 38°01' E 023°33'0 0.0
2018-Jun-12 20:58N 38°01' E 023°33'0 0.0
2018-Jun-12 20:28N 38°01' E 023°33'0 0.0
2018-Jun-12 19:58N 38°01' E 023°33'0 0.0
2018-Jun-12 19:28N 38°01' E 023°33'0 0.0
2018-Jun-12 18:58N 38°01' E 023°33'0 0.0
2018-Jun-12 18:28N 38°01' E 023°33'0 0.0
2018-Jun-12 17:58N 38°01' E 023°33'0 0.0
2018-Jun-12 17:28N 38°01' E 023°33'0 0.0
2018-Jun-12 16:58N 38°01' E 023°33'0 0.0
2018-Jun-12 16:28N 38°01' E 023°33'0 0.0
2018-Jun-12 15:58N 38°01' E 023°33'0 0.0
2018-Jun-12 15:28N 38°01' E 023°33'0 0.0
2018-Jun-12 14:58N 38°01' E 023°33'0 0.0
2018-Jun-12 14:28N 38°01' E 023°33'0 0.0
2018-Jun-12 13:58N 38°01' E 023°33'0 0.0
2018-Jun-12 13:28N 38°01' E 023°33'0 0.0
2018-Jun-12 12:58N 38°01' E 023°33'0 0.1
2018-Jun-12 12:28N 38°01' E 023°33'0 0.2
2018-Jun-12 11:58N 38°01' E 023°33'0 0.1
2018-Jun-12 11:28N 38°01' E 023°33'0 0.0
2018-Jun-12 10:58N 38°01' E 023°33'0 0.0
2018-Jun-12 10:28N 38°01' E 023°33'0 0.0
2018-Jun-12 09:58N 38°01' E 023°33'0 0.0
2018-Jun-12 09:28N 38°01' E 023°33'0 0.0
2018-Jun-12 08:58N 38°01' E 023°33'0 0.0
2018-Jun-12 08:28N 38°01' E 023°33'0 0.0
2018-Jun-12 07:58N 38°01' E 023°33'0 0.0
2018-Jun-12 07:28N 38°01' E 023°33'0 0.0
2018-Jun-12 06:58N 38°01' E 023°33'0 0.0
2018-Jun-12 06:28N 38°01' E 023°33'0 0.0
2018-Jun-12 05:58N 38°01' E 023°33'0 0.0
2018-Jun-12 05:28N 38°01' E 023°33'0 0.0
2018-Jun-12 04:58N 38°01' E 023°33'0 0.0
2018-Jun-12 04:28N 38°01' E 023°33'0 0.0
2018-Jun-12 03:58N 38°01' E 023°33'0 0.0
2018-Jun-12 03:28N 38°01' E 023°33'0 0.0
2018-Jun-12 02:58N 38°01' E 023°33'0 0.0
2018-Jun-12 02:28N 38°01' E 023°33'0 0.0
2018-Jun-12 01:58N 38°01' E 023°33'0 0.0
2018-Jun-12 01:28N 38°01' E 023°33'0 0.0
2018-Jun-12 00:58N 38°01' E 023°33'0 0.0
2018-Jun-12 00:28N 38°01' E 023°33'0 0.0
2018-Jun-11 23:58N 38°01' E 023°33'0 0.0
2018-Jun-11 23:28N 38°01' E 023°33'0 0.0
2018-Jun-11 22:58N 38°01' E 023°33'0 0.0
2018-Jun-11 22:28N 38°01' E 023°33'0 0.0
2018-Jun-11 21:58N 38°01' E 023°33'0 0.0
2018-Jun-11 21:28N 38°01' E 023°33'0 0.0
2018-Jun-11 20:58N 38°01' E 023°33'0 0.0
2018-Jun-11 20:28N 38°01' E 023°33'0 0.0
2018-Jun-11 19:58N 38°01' E 023°33'0 0.0
2018-Jun-11 19:28N 38°01' E 023°33'0 0.0
2018-Jun-11 18:58N 38°01' E 023°33'0 0.0
2018-Jun-11 18:28N 38°01' E 023°33'0 0.0
2018-Jun-11 17:58N 38°01' E 023°33'0 0.0
2018-Jun-11 17:28N 38°01' E 023°33'0 0.0
2018-Jun-11 16:58N 38°01' E 023°33'1 1.4
2018-Jun-11 16:30N 38°01' E 023°33'4 7.2
2018-Jun-11 15:58N 37°57' E 023°35'0 0.0
2018-Jun-11 15:28N 37°57' E 023°35'0 0.0
2018-Jun-11 14:58N 37°57' E 023°35'0 0.0
2018-Jun-11 14:28N 37°57' E 023°35'0 0.0
2018-Jun-11 13:58N 37°57' E 023°35'0 0.0
2018-Jun-11 13:28N 37°57' E 023°35'0 0.0
2018-Jun-11 12:58N 37°57' E 023°35'0 0.0
2018-Jun-11 12:28N 37°57' E 023°35'0 0.0
2018-Jun-11 11:58N 37°57' E 023°35'0 0.0
2018-Jun-11 11:28N 37°57' E 023°35'0 0.0
2018-Jun-11 10:58N 37°57' E 023°35'0 0.0
2018-Jun-11 10:28N 37°57' E 023°35'0 0.0
2018-Jun-11 09:58N 37°57' E 023°35'0 0.0
2018-Jun-11 09:28N 37°57' E 023°35'0 0.0
2018-Jun-11 08:58N 37°57' E 023°35'0 0.0
2018-Jun-11 08:28N 37°57' E 023°35'0 0.0
2018-Jun-11 07:58N 37°57' E 023°35'0 0.0
2018-Jun-11 07:28N 37°57' E 023°35'0 0.0
2018-Jun-11 06:58N 37°57' E 023°35'0 0.0
2018-Jun-11 06:28N 37°57' E 023°35'0 0.0
2018-Jun-11 05:58N 37°57' E 023°35'0 0.0
2018-Jun-11 05:28N 37°57' E 023°35'0 0.0
2018-Jun-11 04:58N 37°57' E 023°35'0 0.0
2018-Jun-11 04:28N 37°57' E 023°35'0 0.0
2018-Jun-11 03:58N 37°57' E 023°35'0 0.0
2018-Jun-11 03:28N 37°57' E 023°35'0 0.0
2018-Jun-11 02:58N 37°57' E 023°35'0 0.0
2018-Jun-11 02:28N 37°57' E 023°35'0 0.0
2018-Jun-11 01:58N 37°57' E 023°35'0 0.0
2018-Jun-11 01:28N 37°57' E 023°35'0 0.0
2018-Jun-11 00:58N 37°57' E 023°35'0 0.0
2018-Jun-11 00:28N 37°57' E 023°35'0 0.0
2018-Jun-10 23:58N 37°57' E 023°35'0 0.0
2018-Jun-10 23:28N 37°57' E 023°35'0 0.0
2018-Jun-10 22:58N 37°57' E 023°35'0 0.0
2018-Jun-10 22:28N 37°57' E 023°35'0 0.0
2018-Jun-10 21:58N 37°57' E 023°35'0 0.0
2018-Jun-10 21:28N 37°57' E 023°35'0 0.0
2018-Jun-10 20:58N 37°57' E 023°35'0 0.0
2018-Jun-10 20:28N 37°57' E 023°35'0 0.0
2018-Jun-10 19:58N 37°57' E 023°35'0 0.0
2018-Jun-10 19:28N 37°57' E 023°35'0 0.0
2018-Jun-10 18:58N 37°57' E 023°35'0 0.0
2018-Jun-10 18:28N 37°57' E 023°35'0 0.0
2018-Jun-10 17:58N 37°57' E 023°35'0 0.0
2018-Jun-10 17:28N 37°57' E 023°35'0 0.0
2018-Jun-10 16:58N 37°57' E 023°35'0 0.0
2018-Jun-10 16:28N 37°57' E 023°35'0 0.0
2018-Jun-10 15:58N 37°57' E 023°35'0 0.0
2018-Jun-10 15:28N 37°57' E 023°35'0 0.0
2018-Jun-10 14:58N 37°57' E 023°35'0 0.0
2018-Jun-10 13:58N 37°57' E 023°35'0 0.0
2018-Jun-10 13:28N 37°57' E 023°35'0 0.0
2018-Jun-10 12:58N 37°57' E 023°35'0 0.0
2018-Jun-10 12:28N 37°57' E 023°35'0 0.0
2018-Jun-10 11:58N 37°57' E 023°35'0 0.0
2018-Jun-10 11:28N 37°57' E 023°35'0 0.1
2018-Jun-10 10:58N 37°57' E 023°35'0 0.1
2018-Jun-10 10:28N 37°57' E 023°35'0 0.0
2018-Jun-10 09:58N 37°57' E 023°35'0 0.0
2018-Jun-10 09:28N 37°57' E 023°35'0 0.0
2018-Jun-10 08:58N 37°57' E 023°35'0 0.0
2018-Jun-10 08:28N 37°57' E 023°35'0 0.0
2018-Jun-10 07:58N 37°57' E 023°35'0 0.0
2018-Jun-10 07:28N 37°57' E 023°35'0 0.0
2018-Jun-10 06:58N 37°57' E 023°35'0 0.2
2018-Jun-10 06:30N 37°57' E 023°35'2 3.9
2018-Jun-10 06:00N 37°55' E 023°36'1 1.0
2018-Jun-10 05:30N 37°55' E 023°36'0 0.3
2018-Jun-10 05:00N 37°55' E 023°36'0 0.4
2018-Jun-10 04:30N 37°54' E 023°36'0 0.7
2018-Jun-10 04:00N 37°54' E 023°36'3 5.3
2018-Jun-10 03:30N 37°52' E 023°38'4 8.7
2018-Jun-10 03:00N 37°48' E 023°41'510.1
2018-Jun-10 02:30N 37°44' E 023°44'510.4
2018-Jun-10 02:00N 37°39' E 023°47'510.7
2018-Jun-10 01:30N 37°37' E 023°53'510.0
2018-Jun-10 01:00N 37°36' E 023°59'510.1
2018-Jun-10 00:30N 37°37' E 024°06'21410.8
2018-Jun-09 04:40N 40°28' E 026°51'212.1
2018-Jun-09 04:30N 40°29' E 026°53'5012.0
2018-Jun-09 00:20N 40°48' E 027°54'612.1
2018-Jun-08 23:49N 40°49' E 028°02'412.4
2018-Jun-08 23:30N 40°49' E 028°07'612.3
2018-Jun-08 23:00N 40°50' E 028°15'1212.0
2018-Jun-08 21:58N 40°52' E 028°31'1711.8
2018-Jun-08 20:32N 40°56' E 028°53'111.8
2018-Jun-08 20:28N 40°56' E 028°54'2010.7
2018-Jun-08 18:38N 41°13' E 029°07'  

Dump ship's entire track history